Time;durP1;ratioP1;P1;durP2;ratioP2;P2;SDS_P1;SDS_P2;PMS_P1;PMS_P2;Temp;Humidity;BMP_temperature;BMP_pressure;BME280_temperature;BME280_humidity;BME280_pressure;Samples;Min_cycle;Max_cycle;Signal;HPM_P1;HPM_P2
2022/02/27 00:00:19;;;;;;;798.20;744.50;;;0.00;99.90;;;;;;4973662;28;20845;-81
2022/02/27 00:02:46;;;;;;;799.80;746.13;;;-0.20;99.90;;;;;;4975036;28;20455;-82
2022/02/27 00:05:13;;;;;;;783.03;733.73;;;-0.10;99.90;;;;;;4973945;28;20203;-82
2022/02/27 00:07:40;;;;;;;794.17;744.28;;;-0.20;99.90;;;;;;4973880;28;20461;-82
2022/02/27 00:10:08;;;;;;;800.90;747.03;;;-0.40;99.90;;;;;;4974452;28;20716;-81
2022/02/27 00:12:38;;;;;;;790.55;737.20;;;-0.30;99.90;;;;;;4974755;28;20455;-82
2022/02/27 00:15:07;;;;;;;789.63;738.40;;;-0.10;99.90;;;;;;4973916;28;20196;-82
2022/02/27 00:17:37;;;;;;;784.70;733.73;;;-0.20;99.90;;;;;;4974702;28;20464;-82
2022/02/27 00:20:05;;;;;;;800.90;749.17;;;-0.20;99.90;;;;;;4973918;28;20525;-82
2022/02/27 00:22:32;;;;;;;796.83;743.80;;;-0.20;99.90;;;;;;4974871;28;20459;-82
2022/02/27 00:24:59;;;;;;;799.23;744.87;;;-0.10;99.90;;;;;;4973537;28;20457;-81
2022/02/27 00:27:32;;;;;;;787.30;736.00;;;0.00;99.90;;;;;;4958523;28;20501;-82
2022/02/27 00:29:58;;;;;;;785.87;736.33;;;-0.10;99.90;;;;;;4973206;28;20478;-82
2022/02/27 00:32:26;;;;;;;762.20;716.87;;;-0.20;99.90;;;;;;4974645;28;20467;-82
2022/02/27 00:34:53;;;;;;;777.40;728.70;;;-0.30;99.90;;;;;;4973039;28;20478;-82
2022/02/27 00:37:20;;;;;;;790.13;738.37;;;-0.30;99.90;;;;;;4972912;28;20454;-81
2022/02/27 00:39:47;;;;;;;786.37;735.60;;;-0.30;99.90;;;;;;4972833;28;20471;-82
2022/02/27 00:42:13;;;;;;;788.47;734.85;;;-0.50;99.90;;;;;;4973466;28;20470;-82
2022/02/27 00:44:40;;;;;;;788.67;735.67;;;-0.20;99.90;;;;;;4977168;28;20224;-82
2022/02/27 00:47:07;;;;;;;777.73;724.17;;;-0.10;99.90;;;;;;4976825;28;20462;-81
2022/02/27 00:49:35;;;;;;;781.10;729.10;;;0.00;99.90;;;;;;4976643;28;21034;-82
2022/02/27 00:52:02;;;;;;;775.07;723.57;;;0.00;99.90;;;;;;4976757;28;20462;-82
2022/02/27 00:54:29;;;;;;;760.47;712.10;;;0.10;99.90;;;;;;4976352;28;20995;-81
2022/02/27 00:56:56;;;;;;;754.47;709.83;;;0.10;99.90;;;;;;4976358;28;20960;-82
2022/02/27 00:59:23;;;;;;;764.67;719.17;;;-0.10;99.90;;;;;;4976376;28;20482;-82
2022/02/27 01:01:49;;;;;;;770.50;724.33;;;0.00;99.90;;;;;;4976321;28;20208;-81
2022/02/27 01:04:16;;;;;;;782.80;733.67;;;-0.20;99.90;;;;;;4976038;28;20451;-81
2022/02/27 01:06:44;;;;;;;778.43;729.53;;;-0.10;99.90;;;;;;4976462;28;20478;-82
2022/02/27 01:09:11;;;;;;;770.53;723.43;;;-0.10;99.90;;;;;;4976221;28;20486;-82
2022/02/27 01:11:37;;;;;;;778.07;729.97;;;0.10;99.90;;;;;;4976803;28;20451;-82
2022/02/27 01:14:04;;;;;;;761.57;717.03;;;0.00;99.90;;;;;;4976539;28;20490;-82
2022/02/27 01:16:31;;;;;;;753.57;710.63;;;0.00;99.90;;;;;;4976475;28;20622;-81
2022/02/27 01:18:58;;;;;;;717.80;677.47;;;-0.10;99.90;;;;;;4975990;28;20451;-81
2022/02/27 01:21:24;;;;;;;742.07;700.53;;;-0.30;99.90;;;;;;4976569;28;20450;-81
2022/02/27 01:23:52;;;;;;;736.87;696.27;;;-0.40;99.90;;;;;;4976606;28;20832;-81
2022/02/27 01:26:19;;;;;;;767.53;720.73;;;-0.60;99.90;;;;;;4975946;28;20451;-81
2022/02/27 01:28:46;;;;;;;760.10;711.37;;;-0.70;99.90;;;;;;4975969;28;20455;-82
2022/02/27 01:31:13;;;;;;;754.70;707.60;;;-0.50;99.90;;;;;;4975802;28;20455;-81
2022/02/27 01:33:39;;;;;;;759.47;713.13;;;-0.60;99.90;;;;;;4957254;28;20484;-82
2022/02/27 01:36:07;;;;;;;773.03;723.13;;;-0.50;99.90;;;;;;4975509;28;20459;-81
2022/02/27 01:38:34;;;;;;;766.92;716.45;;;-0.50;99.90;;;;;;4975827;28;20196;-81
2022/02/27 01:41:02;;;;;;;771.87;720.23;;;-0.40;99.90;;;;;;4976072;28;20931;-82
2022/02/27 01:43:29;;;;;;;760.47;710.73;;;-0.40;99.90;;;;;;4977040;28;20455;-82
2022/02/27 01:45:56;;;;;;;754.87;707.10;;;-0.40;99.90;;;;;;4976855;28;20463;-81
2022/02/27 01:48:22;;;;;;;742.08;697.45;;;-0.40;99.90;;;;;;4976961;28;20460;-81
2022/02/27 01:50:49;;;;;;;743.30;698.70;;;-0.50;99.90;;;;;;4975824;28;20228;-82
2022/02/27 01:53:16;;;;;;;760.37;711.83;;;-0.60;99.90;;;;;;4976145;28;20451;-82
2022/02/27 01:55:43;;;;;;;748.00;700.90;;;-0.60;99.90;;;;;;4976449;28;20979;-82
2022/02/27 01:58:11;;;;;;;736.03;691.58;;;-0.50;99.90;;;;;;4978041;28;20199;-82
2022/02/27 02:00:38;;;;;;;743.43;699.27;;;-0.70;99.90;;;;;;4977662;28;20302;-82
2022/02/27 02:03:05;;;;;;;747.67;700.75;;;-0.70;99.90;;;;;;4976957;28;20471;-81
2022/02/27 02:05:31;;;;;;;735.85;689.47;;;-0.80;99.90;;;;;;4976698;28;20202;-81
2022/02/27 02:08:00;;;;;;;753.27;703.17;;;-0.90;99.90;;;;;;4976455;28;20199;-82
2022/02/27 02:10:27;;;;;;;751.50;700.55;;;-0.80;99.90;;;;;;4975680;28;20482;-82
2022/02/27 02:12:55;;;;;;;749.67;697.87;;;-1.00;99.90;;;;;;4976284;28;20191;-82
2022/02/27 02:15:23;;;;;;;759.67;708.78;;;-0.60;99.90;;;;;;4976135;28;20479;-82
2022/02/27 02:17:50;;;;;;;744.70;696.37;;;-0.50;99.90;;;;;;4976547;28;20218;-82
2022/02/27 02:20:19;;;;;;;731.67;687.67;;;-0.50;99.90;;;;;;4976254;28;20471;-82
2022/02/27 02:22:46;;;;;;;702.25;662.75;;;-0.80;99.90;;;;;;4976063;28;20458;-82
2022/02/27 02:25:13;;;;;;;721.28;679.38;;;-0.90;99.90;;;;;;4976444;28;20192;-82
2022/02/27 02:27:40;;;;;;;749.23;699.93;;;-1.00;99.90;;;;;;4976169;28;20199;-82
2022/02/27 02:30:09;;;;;;;757.22;708.03;;;-0.90;99.90;;;;;;4976220;28;20502;-82
2022/02/27 02:32:47;;;;;;;746.23;697.13;;;-1.10;99.90;;;;;;4975713;28;20243;-82
2022/02/27 02:35:14;;;;;;;748.17;699.13;;;-1.10;99.90;;;;;;4975483;28;20470;-82
2022/02/27 02:37:42;;;;;;;742.55;695.75;;;-1.20;99.90;;;;;;4976320;28;20200;-82
2022/02/27 02:40:10;;;;;;;759.55;710.70;;;-1.30;99.90;;;;;;4977800;28;20219;-82
2022/02/27 02:42:39;;;;;;;753.00;704.50;;;-1.40;99.90;;;;;;4975686;28;20207;-82
2022/02/27 02:45:07;;;;;;;762.67;713.17;;;-1.50;99.90;;;;;;4975747;28;20197;-81
2022/02/27 02:47:34;;;;;;;782.67;728.33;;;-1.60;99.90;;;;;;4976061;28;20200;-82
2022/02/27 02:50:01;;;;;;;766.28;708.03;;;-1.50;99.90;;;;;;4975016;28;20231;-82
2022/02/27 02:52:27;;;;;;;753.15;694.08;;;-1.40;99.90;;;;;;4975944;28;20195;-82
2022/02/27 02:54:55;;;;;;;742.55;685.40;;;-1.10;99.90;;;;;;4975663;28;20696;-81
2022/02/27 02:57:22;;;;;;;751.50;696.33;;;-1.20;99.90;;;;;;4975760;28;20204;-82
2022/02/27 02:59:50;;;;;;;756.88;704.05;;;-1.30;99.90;;;;;;4976052;28;20222;-82
2022/02/27 03:02:19;;;;;;;774.38;723.15;;;-1.40;99.90;;;;;;4976754;28;20199;-82
2022/02/27 03:04:46;;;;;;;770.72;718.92;;;-1.70;99.90;;;;;;4971988;28;20215;-82
2022/02/27 03:07:12;;;;;;;763.05;712.05;;;-1.80;99.90;;;;;;4974601;28;20199;-82
2022/02/27 03:09:39;;;;;;;752.75;702.70;;;-1.90;99.90;;;;;;4968093;28;20231;-82
2022/02/27 03:12:08;;;;;;;742.67;694.40;;;-2.00;99.90;;;;;;4976104;28;20200;-82
2022/02/27 03:14:35;;;;;;;750.13;700.78;;;-2.00;99.90;;;;;;4976362;28;20211;-82
2022/02/27 03:17:01;;;;;;;746.35;696.05;;;-2.20;99.90;;;;;;4976465;28;20225;-81
2022/02/27 03:19:28;;;;;;;752.00;702.38;;;-2.30;99.90;;;;;;4975574;28;20607;-81
2022/02/27 03:21:55;;;;;;;776.72;728.83;;;-2.30;99.90;;;;;;4975949;28;20199;-82
2022/02/27 03:24:22;;;;;;;788.15;738.03;;;-2.60;99.90;;;;;;4975856;28;20188;-81
2022/02/27 03:26:49;;;;;;;792.92;741.03;;;-2.50;99.90;;;;;;4974080;28;20582;-81
2022/02/27 03:29:17;;;;;;;788.30;736.75;;;-2.70;99.90;;;;;;4969115;28;20212;-81
2022/02/27 03:31:44;;;;;;;807.33;753.58;;;-2.60;99.90;;;;;;4969098;28;20203;-80
2022/02/27 03:34:10;;;;;;;800.25;744.75;;;-2.70;99.90;;;;;;4965288;28;20212;-80
2022/02/27 03:36:37;;;;;;;814.67;757.47;;;-2.70;99.90;;;;;;4976034;28;20218;-82
2022/02/27 03:39:04;;;;;;;819.92;761.17;;;-2.70;99.90;;;;;;4975423;28;20583;-80
2022/02/27 03:41:31;;;;;;;816.92;759.53;;;-2.50;99.90;;;;;;4973054;28;20191;-81
2022/02/27 03:43:57;;;;;;;811.53;754.47;;;-2.60;99.90;;;;;;4974406;28;20192;-80
2022/02/27 03:46:25;;;;;;;817.80;760.60;;;-2.70;99.90;;;;;;4955946;29;20207;-81
2022/02/27 03:48:52;;;;;;;827.15;768.97;;;-2.80;99.90;;;;;;4962902;28;20199;-81
2022/02/27 03:51:22;;;;;;;815.38;758.50;;;-2.60;99.90;;;;;;5000512;23;20238;-80
2022/02/27 03:53:49;;;;;;;822.72;764.25;;;-2.60;99.90;;;;;;4978092;28;20199;-81
2022/02/27 03:56:15;;;;;;;816.70;758.33;;;-2.70;99.90;;;;;;4979440;28;20577;-80
2022/02/27 03:58:42;;;;;;;826.95;767.58;;;-2.60;99.90;;;;;;4979883;28;20204;-80
2022/02/27 04:01:09;;;;;;;851.55;788.50;;;-2.70;99.90;;;;;;4978190;28;20316;-80
2022/02/27 04:03:37;;;;;;;836.33;774.95;;;-2.30;99.90;;;;;;4978940;28;20200;-80
2022/02/27 04:06:04;;;;;;;842.90;780.30;;;-2.50;99.90;;;;;;4979533;28;20233;-80
2022/02/27 04:08:30;;;;;;;833.45;771.50;;;-1.90;99.90;;;;;;4978381;28;20202;-80
2022/02/27 04:10:57;;;;;;;819.53;758.88;;;-1.70;99.90;;;;;;4978986;28;20223;-80
2022/02/27 04:13:24;;;;;;;811.95;750.95;;;-1.90;99.90;;;;;;4977908;28;20192;-81
2022/02/27 04:15:51;;;;;;;815.05;754.88;;;-1.80;99.90;;;;;;4977779;28;20216;-81
2022/02/27 04:18:17;;;;;;;818.72;757.83;;;-1.80;99.90;;;;;;4979801;28;20208;-80
2022/02/27 04:20:45;;;;;;;804.88;745.42;;;-1.50;99.90;;;;;;4976246;28;20219;-81
2022/02/27 04:23:12;;;;;;;788.42;730.15;;;-1.50;99.90;;;;;;4982307;28;20200;-80
2022/02/27 04:25:39;;;;;;;801.08;742.67;;;-1.60;99.90;;;;;;4982799;28;20222;-80
2022/02/27 04:28:08;;;;;;;794.35;736.95;;;-1.60;99.90;;;;;;4981595;28;20196;-78
2022/02/27 04:30:34;;;;;;;812.83;753.38;;;-1.50;99.90;;;;;;4982625;28;20224;-80
2022/02/27 04:33:02;;;;;;;807.13;747.97;;;-1.60;99.90;;;;;;4982592;28;20211;-81
2022/02/27 04:35:32;;;;;;;806.33;747.65;;;-1.70;99.90;;;;;;4980597;28;20212;-80
2022/02/27 04:38:02;;;;;;;787.53;730.42;;;-1.70;99.90;;;;;;4982459;28;20203;-80
2022/02/27 04:40:33;;;;;;;792.13;734.13;;;-1.60;99.90;;;;;;4981751;28;20683;-80
2022/02/27 04:43:01;;;;;;;790.70;732.88;;;-1.70;99.90;;;;;;4982187;28;20196;-80
2022/02/27 04:45:28;;;;;;;769.70;713.80;;;-1.70;99.90;;;;;;4982477;28;20724;-80
2022/02/27 04:47:55;;;;;;;786.08;730.53;;;-1.80;99.90;;;;;;4981732;28;20206;-80
2022/02/27 04:50:21;;;;;;;789.47;732.63;;;-1.90;99.90;;;;;;4981499;28;20231;-80
2022/02/27 04:52:48;;;;;;;815.47;757.22;;;-1.80;99.90;;;;;;4981441;28;20222;-80
2022/02/27 04:55:16;;;;;;;809.00;751.03;;;-1.80;99.90;;;;;;4982289;28;20699;-80
2022/02/27 04:57:43;;;;;;;797.72;740.40;;;-1.80;99.90;;;;;;4982902;28;20231;-82
2022/02/27 05:00:11;;;;;;;796.80;738.38;;;-1.90;99.90;;;;;;4980224;28;20234;-82
2022/02/27 05:02:39;;;;;;;806.13;747.78;;;-2.00;99.90;;;;;;4982784;28;20203;-82
2022/02/27 05:05:07;;;;;;;804.03;746.90;;;-1.90;99.90;;;;;;4982225;28;20195;-83
2022/02/27 05:07:34;;;;;;;807.10;748.85;;;-1.90;99.90;;;;;;4980777;28;20202;-80
2022/02/27 05:10:01;;;;;;;797.35;740.70;;;-1.90;99.90;;;;;;4981013;28;20219;-80
2022/02/27 05:12:31;;;;;;;793.38;735.03;;;-1.90;99.90;;;;;;4979716;28;20211;-80
2022/02/27 05:15:00;;;;;;;773.80;717.55;;;-1.70;99.90;;;;;;4981823;28;20219;-80
2022/02/27 05:17:27;;;;;;;792.60;735.22;;;-1.70;99.90;;;;;;4981953;28;20192;-80
2022/02/27 05:19:56;;;;;;;792.70;736.20;;;-1.70;99.90;;;;;;4981314;28;20330;-80
2022/02/27 05:22:23;;;;;;;817.47;759.40;;;-1.80;99.90;;;;;;4982057;28;20192;-80
2022/02/27 05:24:49;;;;;;;810.55;754.05;;;-1.80;99.90;;;;;;4980276;28;20206;-80
2022/02/27 05:27:16;;;;;;;790.22;734.83;;;-1.80;99.90;;;;;;4980897;28;20199;-81
2022/02/27 05:29:44;;;;;;;795.70;739.78;;;-2.00;99.90;;;;;;4979539;28;20223;-80
2022/02/27 05:32:11;;;;;;;788.78;734.78;;;-2.10;99.90;;;;;;4979893;28;20211;-80
2022/02/27 05:34:37;;;;;;;794.90;739.65;;;-2.10;99.90;;;;;;4981269;28;20205;-81
2022/02/27 05:37:04;;;;;;;800.88;746.22;;;-2.30;99.90;;;;;;4981235;28;20191;-80
2022/02/27 05:39:31;;;;;;;810.97;756.47;;;-2.40;99.90;;;;;;4980150;28;20204;-80
2022/02/27 05:41:58;;;;;;;794.28;741.40;;;-2.40;99.90;;;;;;4981025;28;20607;-80
2022/02/27 05:44:24;;;;;;;789.70;734.72;;;-2.50;99.90;;;;;;4980875;28;20230;-81
2022/02/27 05:46:53;;;;;;;791.22;737.13;;;-2.60;99.90;;;;;;4980163;28;20207;-80
2022/02/27 05:49:19;;;;;;;814.47;757.67;;;-2.60;99.90;;;;;;4980341;28;20196;-80
2022/02/27 05:51:46;;;;;;;775.97;722.22;;;-2.60;99.90;;;;;;4979508;28;20223;-80
2022/02/27 05:54:13;;;;;;;781.03;728.17;;;-2.80;99.90;;;;;;4981315;28;20280;-81
2022/02/27 05:56:40;;;;;;;790.25;736.53;;;-2.90;99.90;;;;;;4981226;28;20235;-80
2022/02/27 05:59:07;;;;;;;818.78;762.55;;;-2.90;99.90;;;;;;4961501;28;20207;-80
2022/02/27 06:01:34;;;;;;;784.17;729.65;;;-2.80;99.90;;;;;;4963647;28;20222;-81
2022/02/27 06:04:02;;;;;;;786.67;731.95;;;-2.90;99.90;;;;;;4980742;28;20213;-80
2022/02/27 06:06:29;;;;;;;811.20;753.97;;;-2.80;99.90;;;;;;4980891;28;20684;-81
2022/02/27 06:08:55;;;;;;;833.47;775.38;;;-2.80;99.90;;;;;;4980447;28;20205;-80
2022/02/27 06:11:22;;;;;;;837.42;778.67;;;-2.80;99.90;;;;;;4979755;28;20219;-80
2022/02/27 06:13:49;;;;;;;852.40;793.03;;;-2.60;99.90;;;;;;4980639;28;20207;-80
2022/02/27 06:16:15;;;;;;;821.40;762.10;;;-2.50;99.90;;;;;;4980983;28;20630;-80
2022/02/27 06:18:42;;;;;;;827.33;768.47;;;-2.40;99.90;;;;;;4980537;28;20192;-80
2022/02/27 06:21:10;;;;;;;803.78;746.97;;;-2.30;99.90;;;;;;4980168;28;20211;-81
2022/02/27 06:23:37;;;;;;;789.95;733.60;;;-2.30;99.90;;;;;;4981206;28;20642;-80
2022/02/27 06:26:04;;;;;;;794.25;738.72;;;-2.30;99.90;;;;;;4980715;28;20218;-80
2022/02/27 06:28:31;;;;;;;813.97;757.38;;;-2.10;99.90;;;;;;4979554;28;20200;-80
2022/02/27 06:30:57;;;;;;;789.72;733.92;;;-2.20;99.90;;;;;;4978347;28;20607;-80
2022/02/27 06:33:24;;;;;;;797.55;741.85;;;-2.20;99.90;;;;;;4978702;28;20202;-80
2022/02/27 06:35:51;;;;;;;786.53;731.78;;;-2.10;99.90;;;;;;4979597;28;20223;-80
2022/02/27 06:38:22;;;;;;;775.25;721.58;;;-2.10;99.90;;;;;;4978904;28;20196;-80
2022/02/27 06:40:48;;;;;;;799.78;743.70;;;-2.30;99.90;;;;;;4971680;28;20242;-81
2022/02/27 06:43:15;;;;;;;785.40;729.10;;;-2.30;99.90;;;;;;4978677;28;20199;-79
2022/02/27 06:45:42;;;;;;;769.22;714.42;;;-2.20;99.90;;;;;;4977469;28;20670;-80
2022/02/27 06:48:09;;;;;;;797.03;740.83;;;-2.30;99.90;;;;;;4978727;28;20203;-80
2022/02/27 06:50:35;;;;;;;800.72;744.00;;;-2.10;99.90;;;;;;4979314;28;20242;-80
2022/02/27 06:53:02;;;;;;;808.72;751.83;;;-2.00;99.90;;;;;;4978581;28;20206;-80
2022/02/27 06:55:30;;;;;;;821.45;762.10;;;-2.00;99.90;;;;;;4977553;28;20212;-80
2022/02/27 06:57:57;;;;;;;786.47;729.90;;;-1.70;99.90;;;;;;4978402;28;20199;-80
2022/02/27 07:00:24;;;;;;;800.33;741.95;;;-1.70;99.90;;;;;;4977704;28;20222;-80
2022/02/27 07:02:51;;;;;;;809.67;749.65;;;-1.50;99.90;;;;;;4980684;28;20200;-80
2022/02/27 07:05:17;;;;;;;807.78;747.30;;;-1.50;99.90;;;;;;4980440;28;20196;-80
2022/02/27 07:07:44;;;;;;;790.25;731.40;;;-1.50;99.90;;;;;;4978944;28;20207;-80
2022/02/27 07:10:11;;;;;;;790.33;730.47;;;-1.40;99.90;;;;;;4979497;28;20590;-80
2022/02/27 07:12:41;;;;;;;799.63;739.35;;;-1.30;99.90;;;;;;4978639;28;20197;-81
2022/02/27 07:15:08;;;;;;;778.92;718.38;;;-1.00;99.90;;;;;;4977529;28;20199;-80
2022/02/27 07:17:35;;;;;;;787.13;728.13;;;-1.00;99.90;;;;;;4980372;28;20200;-81
2022/02/27 07:20:03;;;;;;;782.20;723.30;;;-1.00;99.90;;;;;;4978913;28;20228;-80
2022/02/27 07:22:35;;;;;;;799.17;739.53;;;-0.90;99.90;;;;;;4978122;28;20691;-80
2022/02/27 07:25:22;;;;;;;786.70;727.17;;;-1.20;99.90;;;;;;4979921;28;20290;-82
2022/02/27 07:27:55;;;;;;;805.28;745.03;;;-0.70;99.90;;;;;;4967129;28;20459;-80
2022/02/27 07:30:43;;;;;;;808.47;747.70;;;-0.60;99.90;;;;;;4979225;28;20251;-80
2022/02/27 07:33:09;;;;;;;797.55;737.72;;;-0.50;99.90;;;;;;4979444;28;20250;-80
2022/02/27 07:35:50;;;;;;;789.57;731.40;;;-0.30;99.90;;;;;;4978824;28;20714;-81
2022/02/27 07:38:17;;;;;;;796.00;738.00;;;-0.10;99.90;;;;;;4978957;28;20459;-81
2022/02/27 07:40:52;;;;;;;805.20;748.70;;;-0.10;99.90;;;;;;4977208;28;20477;-81
2022/02/27 07:43:21;;;;;;;790.03;738.83;;;0.10;99.90;;;;;;4979478;28;20465;-80
2022/02/27 07:45:48;;;;;;;806.23;755.23;;;0.40;99.90;;;;;;4978550;28;20980;-81
2022/02/27 07:48:14;;;;;;;776.95;733.47;;;0.50;99.90;;;;;;4977213;28;20482;-81
2022/02/27 07:51:00;;;;;;;754.10;714.37;;;0.50;99.90;;;;;;4978879;28;20223;-80
2022/02/27 07:53:43;;;;;;;701.77;667.77;;;0.60;99.90;;;;;;4969774;28;20453;-80
2022/02/27 07:56:16;;;;;;;672.83;640.20;;;0.80;99.90;;;;;;4979605;28;20510;-81
2022/02/27 07:59:00;;;;;;;605.30;578.33;;;0.90;99.90;;;;;;4970760;28;20486;-80
2022/02/27 08:01:30;;;;;;;570.97;546.70;;;0.80;99.90;;;;;;4974732;28;20513;-80
2022/02/27 08:04:16;;;;;;;479.30;459.03;;;0.90;99.90;;;;;;4978523;28;20451;-80
2022/02/27 08:10:55;;;;;;;290.87;279.37;;;1.20;99.90;;;;;;4921565;29;20477;-81
2022/02/27 08:28:49;;;;;;;26.67;24.37;;;1.90;99.90;;;;;;4949886;28;20459;-80
2022/02/27 08:31:51;;;;;;;17.80;16.10;;;2.20;99.90;;;;;;4960239;28;20471;-79
2022/02/27 08:34:27;;;;;;;14.13;12.70;;;2.30;99.90;;;;;;4951234;29;20570;-81
2022/02/27 08:37:06;;;;;;;13.80;8.23;;;2.50;99.90;;;;;;4957472;28;20538;-82
2022/02/27 08:40:14;;;;;;;16.93;8.97;;;2.60;99.90;;;;;;4958408;28;20459;-82
2022/02/27 08:46:27;;;;;;;16.63;7.67;;;2.70;99.90;;;;;;4958885;28;20464;-80
2022/02/27 08:49:25;;;;;;;13.30;7.43;;;2.90;99.90;;;;;;4951907;28;20494;-80
2022/02/27 08:52:38;;;;;;;16.00;7.57;;;3.10;99.90;;;;;;4957276;28;20468;-79
2022/02/27 08:55:53;;;;;;;;;;;;;;;;;;;;;
2022/02/27 09:01:55;;;;;;;14.00;7.43;;;3.70;94.60;;;;;;4938478;28;20478;-79
2022/02/27 09:07:42;;;;;;;16.43;7.20;;;3.90;93.60;;;;;;4944949;28;20968;-82
2022/02/27 09:10:17;;;;;;;10.40;6.47;;;3.90;92.40;;;;;;4960220;28;20480;-82
2022/02/27 09:13:16;;;;;;;24.13;9.03;;;3.90;92.00;;;;;;4961949;29;20463;-82
2022/02/27 09:19:01;;;;;;;13.17;6.60;;;4.40;87.80;;;;;;4898567;29;20458;-83
2022/02/27 09:21:53;;;;;;;12.50;6.13;;;4.60;85.90;;;;;;4959346;28;20479;-83
2022/02/27 09:24:31;;;;;;;12.43;6.00;;;4.90;82.40;;;;;;4961550;29;20984;-83
2022/02/27 09:33:48;;;;;;;11.57;6.30;;;6.20;74.30;;;;;;4846204;29;20453;-85
2022/02/27 09:36:54;;;;;;;17.33;6.57;;;6.60;68.90;;;;;;4961693;28;20483;-83
2022/02/27 09:39:44;;;;;;;10.60;5.57;;;6.90;62.60;;;;;;4951211;28;20460;-84
2022/02/27 09:42:24;;;;;;;14.07;6.40;;;7.20;62.90;;;;;;4962477;29;20463;-83
2022/02/27 09:45:14;;;;;;;10.23;5.53;;;7.50;59.40;;;;;;4962359;28;20462;-83
2022/02/27 09:47:52;;;;;;;11.50;5.47;;;7.70;57.00;;;;;;4962491;28;20514;-84
2022/02/27 09:50:20;;;;;;;17.23;6.20;;;7.90;54.80;;;;;;4979716;23;20557;-82
2022/02/27 09:52:48;;;;;;;9.73;4.87;;;8.30;53.60;;;;;;4974979;28;20956;-83
2022/02/27 09:55:16;;;;;;;9.60;5.40;;;8.40;51.50;;;;;;4974382;28;20455;-82
2022/02/27 09:57:46;;;;;;;10.97;6.30;;;8.30;49.20;;;;;;4976055;28;20530;-83
2022/02/27 10:00:14;;;;;;;7.70;4.70;;;8.30;45.50;;;;;;4975431;28;21015;-83
2022/02/27 10:03:04;;;;;;;9.40;5.13;;;8.70;44.50;;;;;;4976509;28;20837;-84
2022/02/27 10:05:31;;;;;;;7.37;4.53;;;8.90;46.20;;;;;;4978841;28;20460;-83
2022/02/27 10:07:59;;;;;;;14.60;4.63;;;9.10;44.10;;;;;;4976405;28;20458;-83
2022/02/27 10:10:27;;;;;;;13.20;4.87;;;9.20;44.10;;;;;;4975331;28;20474;-83
2022/02/27 10:12:54;;;;;;;10.80;5.30;;;9.60;41.90;;;;;;4975210;28;20451;-83
2022/02/27 10:15:21;;;;;;;13.47;4.60;;;9.20;43.20;;;;;;4975876;28;20458;-83
2022/02/27 10:17:49;;;;;;;17.17;4.50;;;9.40;43.00;;;;;;4976280;28;20475;-84
2022/02/27 10:20:17;;;;;;;10.27;4.93;;;9.60;38.90;;;;;;4975243;28;20529;-83
2022/02/27 10:22:46;;;;;;;9.70;4.60;;;9.70;38.10;;;;;;4976606;28;20458;-84
2022/02/27 10:25:20;;;;;;;7.50;4.77;;;10.00;34.90;;;;;;4974909;28;20454;-83
2022/02/27 10:27:48;;;;;;;12.97;4.63;;;9.80;34.70;;;;;;4975786;28;20451;-83
2022/02/27 10:30:18;;;;;;;9.73;3.73;;;10.30;32.90;;;;;;4975450;28;20479;-84
2022/02/27 10:32:50;;;;;;;10.03;3.80;;;10.70;31.20;;;;;;4974659;28;20462;-83
2022/02/27 10:35:48;;;;;;;11.50;3.90;;;10.80;32.30;;;;;;4975647;28;20456;-83
2022/02/27 10:38:17;;;;;;;8.53;3.83;;;11.40;31.00;;;;;;4933938;29;20903;-84
2022/02/27 10:40:50;;;;;;;13.35;5.00;;;11.30;27.90;;;;;;4967930;28;20489;-83
2022/02/27 10:43:18;;;;;;;8.60;4.07;;;10.80;28.60;;;;;;4977181;28;20198;-85
2022/02/27 10:46:00;;;;;;;6.70;4.17;;;10.70;27.50;;;;;;4975586;28;20460;-83
2022/02/27 10:48:29;;;;;;;8.40;4.37;;;10.70;27.50;;;;;;4976713;28;20456;-85
2022/02/27 10:51:04;;;;;;;11.83;3.47;;;10.80;27.60;;;;;;4975345;28;20483;-82
2022/02/27 10:53:34;;;;;;;10.47;4.47;;;10.80;25.00;;;;;;4975189;28;20457;-84
2022/02/27 10:56:05;;;;;;;8.47;3.67;;;11.20;26.20;;;;;;4975493;28;20458;-84
2022/02/27 10:58:36;;;;;;;7.43;3.43;;;11.40;26.50;;;;;;4975424;28;20455;-83
2022/02/27 11:01:07;;;;;;;13.27;4.43;;;11.30;24.00;;;;;;4975989;28;20480;-84
2022/02/27 11:03:36;;;;;;;10.50;4.03;;;11.30;23.30;;;;;;4974394;28;20455;-83
2022/02/27 11:06:03;;;;;;;10.10;3.93;;;11.70;22.60;;;;;;4975744;28;20909;-84
2022/02/27 11:08:30;;;;;;;7.53;3.50;;;11.40;23.20;;;;;;4973463;28;20546;-82
2022/02/27 11:10:57;;;;;;;9.10;3.30;;;11.70;23.60;;;;;;4973778;28;20483;-83
2022/02/27 11:13:25;;;;;;;10.57;4.00;;;11.80;22.30;;;;;;4975460;28;20453;-83
2022/02/27 11:15:53;;;;;;;7.90;3.37;;;11.90;23.50;;;;;;4975093;28;20476;-84
2022/02/27 11:18:20;;;;;;;10.23;3.93;;;11.90;23.00;;;;;;4974950;28;20475;-83
2022/02/27 11:20:47;;;;;;;10.57;3.47;;;12.00;22.50;;;;;;4975898;28;20477;-82
2022/02/27 11:23:15;;;;;;;11.53;4.03;;;12.10;22.30;;;;;;4973395;28;20473;-82
2022/02/27 11:25:42;;;;;;;9.97;3.67;;;12.10;19.80;;;;;;4975049;28;20453;-82
2022/02/27 11:28:11;;;;;;;8.47;3.17;;;12.40;18.90;;;;;;4973563;28;20456;-82
2022/02/27 11:30:41;;;;;;;8.97;3.53;;;12.70;19.10;;;;;;4973061;28;20485;-83
2022/02/27 11:33:13;;;;;;;10.27;4.10;;;12.50;17.80;;;;;;4974191;28;20461;-82
2022/02/27 11:35:43;;;;;;;6.60;3.20;;;13.00;18.20;;;;;;4973248;28;20450;-83
2022/02/27 11:38:12;;;;;;;7.10;3.53;;;12.00;16.70;;;;;;4975841;28;20484;-81
2022/02/27 11:40:45;;;;;;;8.37;3.70;;;11.80;17.20;;;;;;4974800;28;20480;-84
2022/02/27 11:43:21;;;;;;;8.03;3.30;;;12.00;21.30;;;;;;4974134;28;20849;-83
2022/02/27 11:45:59;;;;;;;12.40;4.20;;;12.20;18.80;;;;;;4975234;28;20464;-83
2022/02/27 11:48:59;;;;;;;8.30;3.63;;;12.20;17.20;;;;;;4973665;28;20943;-83
2022/02/27 11:51:46;;;;;;;7.60;3.40;;;12.30;16.20;;;;;;4972878;28;20485;-83
2022/02/27 11:54:15;;;;;;;9.40;3.50;;;12.30;17.00;;;;;;4975821;28;20462;-82
2022/02/27 11:56:44;;;;;;;7.23;3.67;;;12.40;18.00;;;;;;4973117;28;20482;-84
2022/02/27 11:59:12;;;;;;;10.77;4.13;;;12.60;17.90;;;;;;4974851;28;20462;-84
2022/02/27 12:01:57;;;;;;;6.90;3.80;;;12.50;18.40;;;;;;4973491;28;20481;-82
2022/02/27 12:04:25;;;;;;;10.43;3.80;;;12.20;15.50;;;;;;4975335;28;20458;-83
2022/02/27 12:07:05;;;;;;;8.00;4.20;;;12.70;16.60;;;;;;4974486;28;20451;-82
2022/02/27 12:10:05;;;;;;;10.87;3.80;;;12.70;15.70;;;;;;4974031;28;20461;-83
2022/02/27 12:12:54;;;;;;;11.90;4.70;;;12.80;15.10;;;;;;4923239;29;20455;-82
2022/02/27 12:15:24;;;;;;;8.67;3.90;;;13.00;16.50;;;;;;4894554;29;20470;-83
2022/02/27 12:17:54;;;;;;;7.60;3.30;;;13.10;17.70;;;;;;4941562;28;20474;-83
2022/02/27 12:20:50;;;;;;;9.80;4.63;;;12.70;14.50;;;;;;4975409;28;20481;-82
2022/02/27 12:23:47;;;;;;;10.03;4.73;;;12.90;17.30;;;;;;4971763;28;20455;-84
2022/02/27 12:26:42;;;;;;;8.27;4.43;;;13.20;16.30;;;;;;4974806;28;20448;-82
2022/02/27 12:29:36;;;;;;;8.13;4.30;;;13.00;14.20;;;;;;4953439;28;20510;-82
2022/02/27 12:32:13;;;;;;;12.03;5.10;;;13.60;15.10;;;;;;4954815;29;20527;-83
2022/02/27 12:34:42;;;;;;;9.10;4.63;;;13.40;12.70;;;;;;4953757;29;20451;-82
2022/02/27 12:37:11;;;;;;;6.90;4.20;;;13.80;11.80;;;;;;4954796;29;20476;-84
2022/02/27 12:39:41;;;;;;;9.03;4.63;;;13.70;12.30;;;;;;4964401;28;20478;-81
2022/02/27 12:42:10;;;;;;;7.50;3.97;;;13.80;12.00;;;;;;4976876;28;20456;-83
2022/02/27 12:44:40;;;;;;;14.33;5.70;;;14.10;12.60;;;;;;4978576;28;20456;-83
2022/02/27 12:47:10;;;;;;;12.20;6.20;;;14.00;11.30;;;;;;4977999;28;20481;-83
2022/02/27 12:52:23;;;;;;;11.03;5.00;;;13.90;8.70;;;;;;4977501;28;20840;-83
2022/02/27 12:54:52;;;;;;;10.80;4.03;;;14.30;8.10;;;;;;4976123;28;20461;-83
2022/02/27 12:57:19;;;;;;;7.67;4.33;;;14.40;8.20;;;;;;4977895;28;20826;-82
2022/02/27 12:59:49;;;;;;;8.60;4.10;;;14.30;8.10;;;;;;4974889;28;20997;-83
2022/02/27 13:02:18;;;;;;;6.80;3.80;;;14.20;6.90;;;;;;4976395;28;20472;-83
2022/02/27 13:04:46;;;;;;;14.17;5.13;;;13.80;6.70;;;;;;4977451;28;20453;-82
2022/02/27 13:07:15;;;;;;;14.00;3.73;;;14.00;7.90;;;;;;4975192;28;20480;-82
2022/02/27 13:09:50;;;;;;;8.50;4.13;;;14.30;9.30;;;;;;4976691;28;20483;-84
2022/02/27 13:12:19;;;;;;;9.53;4.40;;;15.00;9.90;;;;;;4978242;28;20452;-81
2022/02/27 13:14:49;;;;;;;9.63;4.90;;;14.80;8.00;;;;;;4975297;28;20885;-83
2022/02/27 13:17:19;;;;;;;13.93;4.13;;;14.70;8.10;;;;;;4979336;28;20970;-84
2022/02/27 13:19:46;;;;;;;12.40;4.17;;;14.90;6.60;;;;;;4978054;28;20465;-83
2022/02/27 13:22:13;;;;;;;11.80;4.53;;;14.30;5.60;;;;;;4975591;28;20463;-82